createdAt,value
2022-08-11T00:00:32.555Z,0.00
2022-08-11T00:01:32.205Z,0.00
2022-08-11T00:02:32.423Z,0.00
2022-08-11T00:03:43.212Z,0.00
2022-08-11T00:04:34.560Z,0.00
2022-08-11T00:05:32.914Z,0.00
2022-08-11T00:06:33.055Z,0.00
2022-08-11T00:07:33.222Z,0.00
2022-08-11T00:08:33.393Z,0.00
2022-08-11T00:09:39.382Z,0.00
2022-08-11T00:10:34.690Z,0.00
2022-08-11T00:11:33.829Z,0.00
2022-08-11T00:12:34.106Z,0.00
2022-08-11T00:13:34.570Z,0.00
2022-08-11T00:14:37.667Z,0.00
2022-08-11T00:15:35.566Z,0.00
2022-08-11T00:16:35.562Z,0.00
2022-08-11T00:17:34.954Z,0.00
2022-08-11T00:18:35.133Z,0.00
2022-08-11T00:20:12.424Z,0.00
2022-08-11T00:20:36.550Z,0.00
2022-08-11T00:22:03.909Z,0.00
2022-08-11T00:22:37.757Z,0.00
2022-08-11T00:23:37.063Z,0.00
2022-08-11T00:24:53.422Z,0.00
2022-08-11T00:25:37.461Z,0.00
2022-08-11T00:26:37.563Z,0.00
2022-08-11T00:27:37.576Z,0.00
2022-08-11T00:28:37.572Z,0.00
2022-08-11T00:29:37.102Z,0.00
2022-08-11T00:30:38.335Z,0.00
2022-08-11T00:31:37.486Z,0.00
2022-08-11T00:32:37.898Z,0.00
2022-08-11T00:33:44.215Z,0.00
2022-08-11T00:34:39.074Z,0.00
2022-08-11T00:35:55.088Z,0.00
2022-08-11T00:36:39.568Z,0.00
2022-08-11T00:37:38.684Z,0.00
2022-08-11T00:38:39.077Z,0.00
2022-08-11T00:39:39.001Z,0.00
2022-08-11T00:40:39.129Z,0.00
2022-08-11T00:41:39.287Z,0.00
2022-08-11T00:42:39.550Z,0.00
2022-08-11T00:43:40.082Z,0.00
2022-08-11T00:44:39.829Z,0.00
2022-08-11T00:45:40.000Z,0.00
2022-08-11T00:46:40.581Z,0.00
2022-08-11T00:47:40.378Z,0.00
2022-08-11T00:48:40.514Z,0.00
2022-08-11T00:49:40.639Z,0.00
2022-08-11T00:50:40.779Z,0.00
2022-08-11T00:51:56.736Z,0.00
2022-08-11T00:52:42.024Z,0.00
2022-08-11T00:53:43.072Z,0.00
2022-08-11T00:54:41.403Z,0.00
2022-08-11T00:55:41.519Z,0.00
2022-08-11T00:56:42.742Z,0.00
2022-08-11T00:57:41.964Z,0.00
2022-08-11T00:58:42.084Z,0.00
2022-08-11T00:59:43.074Z,0.00
2022-08-11T01:00:42.470Z,0.00
2022-08-11T01:01:42.623Z,0.00
2022-08-11T01:02:42.742Z,0.00
2022-08-11T01:03:42.907Z,0.00
2022-08-11T01:04:43.055Z,0.00
2022-08-11T01:05:43.207Z,0.00
2022-08-11T01:06:44.076Z,0.00
2022-08-11T01:08:01.334Z,0.00
2022-08-11T01:08:44.673Z,0.00
2022-08-11T01:09:43.912Z,0.00
2022-08-11T01:10:44.162Z,0.00
2022-08-11T01:11:55.439Z,0.00
2022-08-11T01:12:46.079Z,0.00
2022-08-11T01:13:44.683Z,0.00
2022-08-11T01:14:44.832Z,0.00
2022-08-11T01:15:57.025Z,0.00
2022-08-11T01:16:46.171Z,0.00
2022-08-11T01:17:45.591Z,0.00
2022-08-11T01:18:45.598Z,0.00
2022-08-11T01:20:48.123Z,0.00
2022-08-11T01:20:49.606Z,0.00
2022-08-11T01:21:47.137Z,0.00
2022-08-11T01:22:46.596Z,0.00
2022-08-11T01:23:47.082Z,0.00
2022-08-11T01:24:46.722Z,0.00
2022-08-11T01:25:57.690Z,0.00
2022-08-11T01:26:48.063Z,0.00
2022-08-11T01:27:47.302Z,0.00
2022-08-11T01:28:47.432Z,0.00
2022-08-11T01:29:49.339Z,0.00
2022-08-11T01:30:47.763Z,0.00
2022-08-11T01:31:49.584Z,0.00
2022-08-11T01:32:48.172Z,0.00
2022-08-11T01:33:49.084Z,0.00
2022-08-11T01:34:48.594Z,0.00
2022-08-11T01:35:48.611Z,0.00
2022-08-11T01:36:53.482Z,0.00
2022-08-11T01:37:49.886Z,0.00
2022-08-11T01:38:50.086Z,0.00
2022-08-11T01:39:49.408Z,0.00
2022-08-11T01:40:49.573Z,0.00
2022-08-11T01:41:49.738Z,0.00
2022-08-11T01:42:49.867Z,0.00
2022-08-11T01:43:50.081Z,0.00
2022-08-11T01:44:50.201Z,0.00
2022-08-11T01:45:50.335Z,0.00
2022-08-11T01:46:50.447Z,0.00
2022-08-11T01:47:52.591Z,0.00
2022-08-11T01:48:50.880Z,0.00
2022-08-11T01:50:09.700Z,0.00
2022-08-11T01:50:52.229Z,0.00
2022-08-11T01:51:51.421Z,0.00
2022-08-11T01:52:51.565Z,0.00
2022-08-11T01:53:52.595Z,0.00
2022-08-11T01:54:52.589Z,0.00
2022-08-11T01:55:52.136Z,0.00
2022-08-11T01:56:53.089Z,0.00
2022-08-11T01:57:52.585Z,0.00
2022-08-11T01:58:52.713Z,0.00
2022-08-11T01:59:52.836Z,0.00
2022-08-11T02:00:53.068Z,0.00
2022-08-11T02:01:53.220Z,0.00
2022-08-11T02:02:53.388Z,0.00
2022-08-11T02:03:54.090Z,0.00
2022-08-11T02:04:54.614Z,0.00
2022-08-11T02:05:53.870Z,0.00
2022-08-11T02:06:54.007Z,0.00
2022-08-11T02:07:54.150Z,0.00
2022-08-11T02:08:54.360Z,0.00
2022-08-11T02:09:54.520Z,0.00
2022-08-11T02:10:55.600Z,0.00
2022-08-11T02:11:54.813Z,0.00
2022-08-11T02:12:55.949Z,0.00
2022-08-11T02:13:55.117Z,0.00
2022-08-11T02:15:05.412Z,0.00
2022-08-11T02:15:56.389Z,0.00
2022-08-11T02:16:55.509Z,0.00
2022-08-11T02:17:55.680Z,0.00
2022-08-11T02:18:55.857Z,0.00
2022-08-11T02:19:56.017Z,0.00
2022-08-11T02:20:56.169Z,0.00
2022-08-11T02:21:57.315Z,0.00
2022-08-11T02:22:56.444Z,0.00
2022-08-11T02:24:05.325Z,0.00
2022-08-11T02:24:57.727Z,0.00
2022-08-11T02:25:57.115Z,0.00
2022-08-11T02:26:57.029Z,0.00
2022-08-11T02:27:57.181Z,0.00
2022-08-11T02:28:57.344Z,0.00
2022-08-11T02:29:57.505Z,0.00
2022-08-11T02:30:57.662Z,0.00
2022-08-11T02:32:08.354Z,0.00
2022-08-11T02:32:58.962Z,0.00
2022-08-11T02:33:58.203Z,0.00
2022-08-11T02:34:59.367Z,0.00
2022-08-11T02:35:59.108Z,0.00
2022-08-11T02:36:58.770Z,0.00
2022-08-11T02:37:58.906Z,0.00
2022-08-11T02:38:59.111Z,0.00
2022-08-11T02:39:59.297Z,0.00
2022-08-11T02:40:59.625Z,0.00
2022-08-11T02:42:00.612Z,0.00
2022-08-11T02:42:59.846Z,0.00
2022-08-11T02:44:00.020Z,0.00
2022-08-11T02:45:01.105Z,0.00
2022-08-11T02:46:00.376Z,0.00
2022-08-11T02:47:00.520Z,0.00
2022-08-11T02:48:00.669Z,0.00
2022-08-11T02:49:01.843Z,0.00
2022-08-11T02:50:06.526Z,0.00
2022-08-11T02:51:02.131Z,0.00
2022-08-11T02:52:01.271Z,0.00
2022-08-11T02:53:01.444Z,0.00
2022-08-11T02:54:01.614Z,0.00
2022-08-11T02:55:02.610Z,0.00
2022-08-11T02:56:01.991Z,0.00
2022-08-11T02:57:02.157Z,0.00
2022-08-11T02:58:02.343Z,0.00
2022-08-11T02:59:02.508Z,0.00
2022-08-11T03:00:02.651Z,0.00
2022-08-11T03:01:02.795Z,0.00
2022-08-11T03:02:05.000Z,0.00
2022-08-11T03:03:03.118Z,0.00
2022-08-11T03:04:03.244Z,0.00
2022-08-11T03:05:03.629Z,0.00
2022-08-11T03:06:04.112Z,0.00
2022-08-11T03:07:03.733Z,0.00
2022-08-11T03:08:04.613Z,0.00
2022-08-11T03:09:04.101Z,0.00
2022-08-11T03:10:04.623Z,0.00
2022-08-11T03:11:04.374Z,0.00
2022-08-11T03:12:04.504Z,0.00
2022-08-11T03:13:04.649Z,0.00
2022-08-11T03:14:04.815Z,0.00
2022-08-11T03:15:04.963Z,0.00
2022-08-11T03:16:05.100Z,0.00
2022-08-11T03:17:06.115Z,0.00
2022-08-11T03:18:05.466Z,0.00
2022-08-11T03:19:05.590Z,0.00
2022-08-11T03:20:06.131Z,0.00
2022-08-11T03:21:05.862Z,0.00
2022-08-11T03:22:06.212Z,0.00
2022-08-11T03:23:06.183Z,0.00
2022-08-11T03:24:07.415Z,0.00
2022-08-11T03:25:09.881Z,0.00
2022-08-11T03:26:08.889Z,0.00
2022-08-11T03:27:07.122Z,0.00
2022-08-11T03:28:07.262Z,0.00
2022-08-11T03:29:07.411Z,0.00
2022-08-11T03:30:07.571Z,0.00
2022-08-11T03:31:07.741Z,0.00
2022-08-11T03:32:07.911Z,0.00
2022-08-11T03:33:08.046Z,0.00
2022-08-11T03:34:08.487Z,4.00
2022-08-11T03:35:08.418Z,0.00
2022-08-11T03:36:08.575Z,0.00
2022-08-11T03:37:16.805Z,4.00
2022-08-11T03:38:09.980Z,0.00
2022-08-11T03:39:09.153Z,4.00
2022-08-11T03:40:09.200Z,0.00
2022-08-11T03:42:02.241Z,4.00
2022-08-11T03:42:10.403Z,4.00
2022-08-11T03:43:10.829Z,4.00
2022-08-11T03:44:10.141Z,4.00
2022-08-11T03:45:10.131Z,4.00
2022-08-11T03:46:10.262Z,4.00
2022-08-11T03:47:10.390Z,8.00
2022-08-11T03:48:10.531Z,8.00
2022-08-11T03:49:10.693Z,8.00
2022-08-11T03:50:10.911Z,8.00
2022-08-11T03:51:11.040Z,12.00
2022-08-11T03:52:11.187Z,16.00
2022-08-11T03:53:11.312Z,16.00
2022-08-11T03:54:11.646Z,20.00
2022-08-11T03:55:11.777Z,20.00
2022-08-11T03:56:11.943Z,20.00
2022-08-11T03:57:12.080Z,24.00
2022-08-11T03:58:12.213Z,28.00
2022-08-11T03:59:12.362Z,28.00
2022-08-11T04:00:12.469Z,32.00
2022-08-11T04:01:12.751Z,36.00
2022-08-11T04:02:12.930Z,44.00
2022-08-11T04:03:13.063Z,44.00
2022-08-11T04:04:13.193Z,52.00
2022-08-11T04:05:14.134Z,52.00
2022-08-11T04:06:13.515Z,56.00
2022-08-11T04:07:17.538Z,68.00
2022-08-11T04:08:13.793Z,68.00
2022-08-11T04:09:13.957Z,76.00
2022-08-11T04:10:14.632Z,84.00
2022-08-11T04:11:14.315Z,92.00
2022-08-11T04:12:14.658Z,96.00
2022-08-11T04:13:15.651Z,104.00
2022-08-11T04:14:15.142Z,112.00
2022-08-11T04:15:15.036Z,120.00
2022-08-11T04:16:15.201Z,128.00
2022-08-11T04:17:15.345Z,140.00
2022-08-11T04:18:15.529Z,148.00
2022-08-11T04:19:15.683Z,156.00
2022-08-11T04:20:15.825Z,168.00
2022-08-11T04:21:15.987Z,176.00
2022-08-11T04:22:17.143Z,188.00
2022-08-11T04:24:34.607Z,200.00
2022-08-11T04:24:37.685Z,216.00
2022-08-11T04:25:18.594Z,224.00
2022-08-11T04:26:18.885Z,236.00
2022-08-11T04:27:17.054Z,248.00
2022-08-11T04:28:29.212Z,260.00
2022-08-11T04:29:18.367Z,272.00
2022-08-11T04:30:18.144Z,288.00
2022-08-11T04:31:50.884Z,300.00
2022-08-11T04:32:18.934Z,316.00
2022-08-11T04:33:19.201Z,328.00
2022-08-11T04:34:18.319Z,344.00
2022-08-11T04:35:18.476Z,356.00
2022-08-11T04:36:18.628Z,372.00
2022-08-11T04:37:18.779Z,384.00
2022-08-11T04:38:19.642Z,400.00
2022-08-11T04:39:19.189Z,412.00
2022-08-11T04:40:19.365Z,428.00
2022-08-11T04:41:19.531Z,444.00
2022-08-11T04:42:20.647Z,460.00
2022-08-11T04:43:20.652Z,476.00
2022-08-11T04:44:20.046Z,492.00
2022-08-11T04:45:20.671Z,508.00
2022-08-11T04:46:20.401Z,524.00
2022-08-11T04:47:20.535Z,540.00
2022-08-11T04:48:20.776Z,560.00
2022-08-11T04:49:26.218Z,572.00
2022-08-11T04:50:22.143Z,588.00
2022-08-11T04:51:21.364Z,608.00
2022-08-11T04:52:22.149Z,624.00
2022-08-11T04:53:21.630Z,644.00
2022-08-11T04:54:26.407Z,660.00
2022-08-11T04:55:23.986Z,672.00
2022-08-11T04:56:22.664Z,692.00
2022-08-11T04:57:22.419Z,708.00
2022-08-11T04:58:31.271Z,720.00
2022-08-11T04:59:24.160Z,744.00
2022-08-11T05:00:22.906Z,760.00
2022-08-11T05:01:23.085Z,792.00
2022-08-11T05:02:24.153Z,800.00
2022-08-11T05:03:23.415Z,816.00
2022-08-11T05:04:23.571Z,836.00
2022-08-11T05:05:24.653Z,856.00
2022-08-11T05:06:23.901Z,872.00
2022-08-11T05:07:24.653Z,888.00
2022-08-11T05:08:24.417Z,920.00
2022-08-11T05:09:24.304Z,924.00
2022-08-11T05:10:24.486Z,944.00
2022-08-11T05:11:24.629Z,972.00
2022-08-11T05:12:25.167Z,1012.00
2022-08-11T05:13:24.902Z,1016.00
2022-08-11T05:14:25.656Z,1168.00
2022-08-11T05:15:25.278Z,1076.00
2022-08-11T05:16:26.153Z,1080.00
2022-08-11T05:17:25.719Z,1088.00
2022-08-11T05:18:25.854Z,1104.00
2022-08-11T05:19:26.093Z,1116.00
2022-08-11T05:20:26.672Z,1164.00
2022-08-11T05:21:26.432Z,1600.00
2022-08-11T05:22:26.544Z,1248.00
2022-08-11T05:23:27.168Z,1180.00
2022-08-11T05:24:26.886Z,1188.00
2022-08-11T05:26:25.380Z,1184.00
2022-08-11T05:26:46.285Z,1224.00
2022-08-11T05:27:29.161Z,1244.00
2022-08-11T05:28:27.766Z,1256.00
2022-08-11T05:29:27.870Z,1276.00
2022-08-11T05:30:28.108Z,1284.00
2022-08-11T05:31:28.240Z,1300.00
2022-08-11T05:32:28.377Z,1336.00
2022-08-11T05:33:28.568Z,952.00
2022-08-11T05:34:28.701Z,1368.00
2022-08-11T05:36:00.031Z,1360.00
2022-08-11T05:36:30.080Z,1380.00
2022-08-11T05:37:29.205Z,1484.00
2022-08-11T05:38:29.350Z,1432.00
2022-08-11T05:39:33.889Z,1504.00
2022-08-11T05:40:30.727Z,1484.00
2022-08-11T05:41:30.665Z,1496.00
2022-08-11T05:42:30.722Z,1848.00
2022-08-11T05:43:31.168Z,3220.00
2022-08-11T05:44:30.511Z,2264.00
2022-08-11T05:46:02.929Z,1624.00
2022-08-11T05:46:31.771Z,3448.00
2022-08-11T05:47:30.994Z,1868.00
2022-08-11T05:48:31.135Z,3568.00
2022-08-11T05:49:31.834Z,4764.00
2022-08-11T05:50:33.194Z,1672.00
2022-08-11T05:51:31.702Z,2960.00
2022-08-11T05:52:32.177Z,1708.00
2022-08-11T05:53:43.668Z,2360.00
2022-08-11T05:54:33.196Z,2128.00
2022-08-11T05:55:33.168Z,4280.00
2022-08-11T05:56:33.173Z,3548.00
2022-08-11T05:57:42.343Z,1692.00
2022-08-11T05:58:36.982Z,1728.00
2022-08-11T05:59:34.007Z,2388.00
2022-08-11T06:00:33.220Z,1804.00
2022-08-11T06:01:33.442Z,1748.00
2022-08-11T06:02:33.523Z,1760.00
2022-08-11T06:03:33.698Z,1804.00
2022-08-11T06:04:33.850Z,1868.00
2022-08-11T06:05:37.213Z,1832.00
2022-08-11T06:06:35.106Z,1868.00
2022-08-11T06:07:49.627Z,1900.00
2022-08-11T06:08:35.473Z,1912.00
2022-08-11T06:09:34.592Z,1944.00
2022-08-11T06:10:35.673Z,1980.00
2022-08-11T06:11:43.190Z,2020.00
2022-08-11T06:12:36.164Z,2052.00
2022-08-11T06:13:35.333Z,2072.00
2022-08-11T06:14:35.460Z,2088.00
2022-08-11T06:15:35.707Z,3116.00
2022-08-11T06:16:36.227Z,2128.00
2022-08-11T06:17:39.091Z,2220.00
2022-08-11T06:18:36.177Z,2196.00
2022-08-11T06:19:36.319Z,3564.00
2022-08-11T06:20:36.441Z,20928.00
2022-08-11T06:21:36.567Z,27200.00
2022-08-11T06:22:37.836Z,9024.00
2022-08-11T06:23:36.903Z,2672.00
2022-08-11T06:24:37.067Z,2176.00
2022-08-11T06:25:37.183Z,2184.00
2022-08-11T06:26:49.626Z,2196.00
2022-08-11T06:27:40.196Z,2192.00
2022-08-11T06:28:37.791Z,2204.00
2022-08-11T06:29:47.911Z,2216.00
2022-08-11T06:30:39.155Z,2216.00
2022-08-11T06:31:38.388Z,2224.00
2022-08-11T06:32:38.711Z,2232.00
2022-08-11T06:33:38.725Z,2248.00
2022-08-11T06:34:39.687Z,2260.00
2022-08-11T06:35:39.052Z,2272.00
2022-08-11T06:36:39.237Z,2280.00
2022-08-11T06:37:39.378Z,2296.00
2022-08-11T06:38:39.537Z,2304.00
2022-08-11T06:39:39.722Z,2316.00
2022-08-11T06:40:39.906Z,2336.00
2022-08-11T06:41:40.069Z,2356.00
2022-08-11T06:42:40.212Z,2372.00
2022-08-11T06:43:40.372Z,2388.00
2022-08-11T06:44:42.235Z,2400.00
2022-08-11T06:45:40.698Z,2416.00
2022-08-11T06:46:40.851Z,2464.00
2022-08-11T06:47:40.979Z,2480.00
2022-08-11T06:48:41.690Z,2484.00
2022-08-11T06:49:41.299Z,2568.00
2022-08-11T06:50:42.218Z,2916.00
2022-08-11T06:51:41.819Z,10420.00
2022-08-11T06:52:42.266Z,15904.00
2022-08-11T06:53:41.933Z,3300.00
2022-08-11T06:54:43.690Z,4380.00
2022-08-11T06:55:56.597Z,17792.00
2022-08-11T06:56:43.651Z,31488.00
2022-08-11T06:57:43.211Z,32672.00
2022-08-11T06:58:43.099Z,18464.00
2022-08-11T06:59:44.296Z,43712.00
2022-08-11T07:00:43.432Z,40544.00
2022-08-11T07:01:43.664Z,56928.00
2022-08-11T07:02:43.755Z,71264.00
2022-08-11T07:03:44.696Z,81472.00
2022-08-11T07:04:44.102Z,54720.00
2022-08-11T07:05:44.267Z,15840.00
2022-08-11T07:06:50.886Z,4720.00
2022-08-11T07:07:45.547Z,11904.00
2022-08-11T07:08:44.781Z,24224.00
2022-08-11T07:09:44.949Z,13416.00
2022-08-11T07:10:45.086Z,7336.00
2022-08-11T07:11:45.320Z,3316.00
2022-08-11T07:12:45.480Z,4380.00
2022-08-11T07:13:46.205Z,4988.00
2022-08-11T07:14:45.861Z,15776.00
2022-08-11T07:16:11.643Z,14384.00
2022-08-11T07:16:47.702Z,5456.00
2022-08-11T07:17:47.209Z,3488.00
2022-08-11T07:18:47.200Z,4372.00
2022-08-11T07:19:46.611Z,8276.00
2022-08-11T07:20:46.769Z,5944.00
2022-08-11T07:22:03.157Z,5500.00
2022-08-11T07:22:48.049Z,7564.00
2022-08-11T07:23:47.713Z,7008.00
2022-08-11T07:25:01.457Z,11944.00
2022-08-11T07:25:49.228Z,9272.00
2022-08-11T07:26:47.833Z,16992.00
2022-08-11T07:27:48.003Z,13352.00
2022-08-11T07:28:48.216Z,3208.00
2022-08-11T07:29:48.370Z,2832.00
2022-08-11T07:30:48.539Z,2744.00
2022-08-11T07:31:50.209Z,2800.00
2022-08-11T07:32:49.707Z,3372.00
2022-08-11T07:34:05.516Z,8212.00
2022-08-11T07:34:50.714Z,8528.00
2022-08-11T07:35:49.347Z,6620.00
2022-08-11T07:36:49.530Z,19680.00
2022-08-11T07:37:50.209Z,13300.00
2022-08-11T07:38:50.904Z,4296.00
2022-08-11T07:39:50.101Z,4388.00
2022-08-11T07:40:50.192Z,3028.00
2022-08-11T07:41:51.221Z,6264.00
2022-08-11T07:42:50.503Z,8820.00
2022-08-11T07:43:50.690Z,9376.00
2022-08-11T07:44:50.863Z,7736.00
2022-08-11T07:45:51.712Z,3244.00
2022-08-11T07:46:52.215Z,3100.00
2022-08-11T07:47:51.385Z,3208.00
2022-08-11T07:48:51.562Z,2884.00
2022-08-11T07:49:52.227Z,2876.00
2022-08-11T07:50:56.018Z,2888.00
2022-08-11T07:51:53.092Z,2892.00
2022-08-11T07:52:52.226Z,2988.00
2022-08-11T07:53:58.748Z,2960.00
2022-08-11T07:54:53.617Z,3036.00
2022-08-11T07:55:53.716Z,3004.00
2022-08-11T07:56:54.732Z,2928.00
2022-08-11T07:58:14.304Z,2932.00
2022-08-11T07:58:59.228Z,2948.00
2022-08-11T08:00:03.491Z,2928.00
2022-08-11T08:00:54.809Z,2940.00
2022-08-11T08:01:53.979Z,2940.00
2022-08-11T08:02:54.726Z,2904.00
2022-08-11T08:03:55.221Z,2936.00
2022-08-11T08:04:54.469Z,2968.00
2022-08-11T08:05:54.656Z,2972.00
2022-08-11T08:06:54.809Z,3008.00
2022-08-11T08:07:55.727Z,3020.00
2022-08-11T08:08:55.175Z,3072.00
2022-08-11T08:09:55.343Z,3136.00
2022-08-11T08:10:55.469Z,3144.00
2022-08-11T08:11:55.740Z,6772.00
2022-08-11T08:12:55.773Z,3096.00
2022-08-11T08:13:56.725Z,2932.00
2022-08-11T08:14:56.097Z,2968.00
2022-08-11T08:15:56.256Z,2960.00
2022-08-11T08:16:56.505Z,2936.00
2022-08-11T08:18:09.439Z,3128.00
2022-08-11T08:18:58.729Z,3144.00
2022-08-11T08:19:57.734Z,3320.00
2022-08-11T08:20:58.236Z,3060.00
2022-08-11T08:22:04.381Z,2904.00
2022-08-11T08:22:58.585Z,2904.00
2022-08-11T08:23:57.790Z,2876.00
2022-08-11T08:24:57.933Z,2976.00
2022-08-11T08:25:58.124Z,2936.00
2022-08-11T08:26:58.282Z,2960.00
2022-08-11T08:27:58.427Z,3000.00
2022-08-11T08:28:59.232Z,2904.00
2022-08-11T08:29:59.729Z,3032.00
2022-08-11T08:30:58.984Z,6652.00
2022-08-11T08:31:59.215Z,2972.00
2022-08-11T08:32:59.427Z,2944.00
2022-08-11T08:33:59.562Z,2824.00
2022-08-11T08:34:59.710Z,2844.00
2022-08-11T08:35:59.856Z,2796.00
2022-08-11T08:37:00.008Z,2856.00
2022-08-11T08:38:00.743Z,2804.00
2022-08-11T08:39:00.407Z,2864.00
2022-08-11T08:40:00.574Z,2816.00
2022-08-11T08:41:01.246Z,2852.00
2022-08-11T08:42:01.259Z,2824.00
2022-08-11T08:43:01.038Z,2844.00
2022-08-11T08:44:27.366Z,2888.00
2022-08-11T08:45:03.353Z,2836.00
2022-08-11T08:46:01.607Z,2904.00
2022-08-11T08:47:01.792Z,2792.00
2022-08-11T08:48:02.739Z,2840.00
2022-08-11T08:49:02.146Z,2888.00
2022-08-11T08:50:02.322Z,2820.00
2022-08-11T08:51:02.515Z,2836.00
2022-08-11T08:52:29.473Z,2840.00
2022-08-11T08:53:05.754Z,2960.00
2022-08-11T08:54:03.001Z,3068.00
2022-08-11T08:55:03.162Z,3104.00
2022-08-11T08:56:03.331Z,4012.00
2022-08-11T08:57:03.489Z,3524.00
2022-08-11T08:58:03.629Z,2844.00
2022-08-11T08:59:03.796Z,2880.00
2022-08-11T09:00:04.747Z,2852.00
2022-08-11T09:01:04.169Z,2892.00
2022-08-11T09:02:04.758Z,2884.00
2022-08-11T09:03:22.923Z,2832.00
2022-08-11T09:04:11.444Z,3152.00
2022-08-11T09:05:06.938Z,2816.00
2022-08-11T09:06:05.170Z,7252.00
2022-08-11T09:07:05.292Z,13204.00
2022-08-11T09:08:05.762Z,4956.00
2022-08-11T09:09:05.636Z,6284.00
2022-08-11T09:10:06.749Z,6200.00
2022-08-11T09:11:09.414Z,4084.00
2022-08-11T09:12:07.137Z,2864.00
2022-08-11T09:13:07.250Z,3576.00
2022-08-11T09:14:10.430Z,3924.00
2022-08-11T09:15:09.324Z,9852.00
2022-08-11T09:16:07.262Z,9140.00
2022-08-11T09:17:07.161Z,4892.00
2022-08-11T09:18:07.319Z,6876.00
2022-08-11T09:19:07.455Z,9432.00
2022-08-11T09:20:08.692Z,14592.00
2022-08-11T09:21:07.920Z,17312.00
2022-08-11T09:22:08.754Z,19392.00
2022-08-11T09:24:17.033Z,3296.00
2022-08-11T09:25:10.612Z,3172.00
2022-08-11T09:26:09.268Z,3616.00
2022-08-11T09:27:09.755Z,2856.00
2022-08-11T09:28:09.265Z,2972.00
2022-08-11T09:29:09.770Z,3124.00
2022-08-11T09:30:09.515Z,3652.00
2022-08-11T09:31:09.691Z,2732.00
2022-08-11T09:32:09.836Z,2768.00
2022-08-11T09:33:09.978Z,2764.00
2022-08-11T09:34:10.161Z,2908.00
2022-08-11T09:35:11.256Z,3152.00
2022-08-11T09:36:10.481Z,2732.00
2022-08-11T09:37:10.627Z,2760.00
2022-08-11T09:38:10.789Z,2664.00
2022-08-11T09:39:11.071Z,2596.00
2022-08-11T09:40:11.119Z,2604.00
2022-08-11T09:41:11.772Z,2588.00
2022-08-11T09:42:16.639Z,2584.00
2022-08-11T09:43:12.790Z,2736.00
2022-08-11T09:44:12.760Z,2664.00
2022-08-11T09:45:12.212Z,2712.00
2022-08-11T09:46:12.380Z,2740.00
2022-08-11T09:47:12.508Z,7320.00
2022-08-11T09:48:13.259Z,2776.00
2022-08-11T09:49:13.004Z,2524.00
2022-08-11T09:50:13.228Z,2520.00
2022-08-11T09:51:13.775Z,2464.00
2022-08-11T09:52:14.267Z,2564.00
2022-08-11T09:53:36.083Z,2500.00
2022-08-11T09:54:15.964Z,2484.00
2022-08-11T09:55:14.762Z,2444.00
2022-08-11T09:56:14.418Z,2436.00
2022-08-11T09:57:14.546Z,2424.00
2022-08-11T09:58:42.432Z,2388.00
2022-08-11T09:59:15.911Z,2512.00
2022-08-11T10:00:15.510Z,2396.00
2022-08-11T10:01:15.339Z,2392.00
2022-08-11T10:02:15.551Z,2408.00
2022-08-11T10:03:15.696Z,2412.00
2022-08-11T10:04:15.821Z,2588.00
2022-08-11T10:05:15.961Z,2760.00
2022-08-11T10:06:16.110Z,4524.00
2022-08-11T10:07:16.360Z,6116.00
2022-08-11T10:08:17.278Z,5172.00
2022-08-11T10:09:16.685Z,3364.00
2022-08-11T10:10:17.813Z,2836.00
2022-08-11T10:11:17.789Z,2580.00
2022-08-11T10:12:18.291Z,2412.00
2022-08-11T10:14:31.260Z,2380.00
2022-08-11T10:14:33.368Z,2488.00
2022-08-11T10:15:18.908Z,2520.00
2022-08-11T10:16:18.021Z,2404.00
2022-08-11T10:17:18.175Z,2396.00
2022-08-11T10:18:18.381Z,2380.00
2022-08-11T10:19:18.544Z,2388.00
2022-08-11T10:20:22.681Z,2476.00
2022-08-11T10:21:20.880Z,2436.00
2022-08-11T10:22:20.100Z,2340.00
2022-08-11T10:23:19.346Z,2336.00
2022-08-11T10:24:19.504Z,2300.00
2022-08-11T10:25:20.131Z,2344.00
2022-08-11T10:26:20.778Z,2312.00
2022-08-11T10:27:20.787Z,2324.00
2022-08-11T10:28:36.369Z,2316.00
2022-08-11T10:29:21.370Z,2328.00
2022-08-11T10:30:21.500Z,2324.00
2022-08-11T10:31:20.617Z,2380.00
2022-08-11T10:32:21.277Z,2404.00
2022-08-11T10:33:37.071Z,2472.00
2022-08-11T10:34:22.135Z,2840.00
2022-08-11T10:35:21.363Z,3116.00
2022-08-11T10:36:21.516Z,2460.00
2022-08-11T10:37:21.704Z,2356.00
2022-08-11T10:38:21.890Z,2324.00
2022-08-11T10:39:22.130Z,2320.00
2022-08-11T10:40:22.784Z,2288.00
2022-08-11T10:41:22.414Z,2352.00
2022-08-11T10:42:41.440Z,2368.00
2022-08-11T10:44:02.403Z,2320.00
2022-08-11T10:44:24.022Z,2308.00
2022-08-11T10:45:23.785Z,2260.00
2022-08-11T10:46:29.563Z,2272.00
2022-08-11T10:47:24.418Z,2288.00
2022-08-11T10:48:23.569Z,2276.00
2022-08-11T10:49:23.802Z,2280.00
2022-08-11T10:50:23.967Z,2272.00
2022-08-11T10:51:48.005Z,2256.00
2022-08-11T10:52:25.266Z,2260.00
2022-08-11T10:53:24.385Z,2220.00
2022-08-11T10:54:24.574Z,2228.00
2022-08-11T10:55:24.807Z,2240.00
2022-08-11T10:56:24.945Z,2344.00
2022-08-11T10:57:25.115Z,3432.00
2022-08-11T10:58:25.325Z,3508.00
2022-08-11T10:59:25.448Z,3508.00
2022-08-11T11:00:25.644Z,3472.00
2022-08-11T11:01:26.450Z,3456.00
2022-08-11T11:02:25.895Z,3316.00
2022-08-11T11:03:26.076Z,3224.00
2022-08-11T11:04:26.802Z,3252.00
2022-08-11T11:05:26.807Z,3356.00
2022-08-11T11:06:29.329Z,3300.00
2022-08-11T11:07:26.770Z,3292.00
2022-08-11T11:08:27.806Z,3092.00
2022-08-11T11:09:27.797Z,2960.00
2022-08-11T11:10:27.313Z,2624.00
2022-08-11T11:11:27.331Z,2264.00
2022-08-11T11:12:27.815Z,2200.00
2022-08-11T11:13:27.714Z,2244.00
2022-08-11T11:14:27.840Z,2232.00
2022-08-11T11:15:27.999Z,2224.00
2022-08-11T11:16:28.800Z,2224.00
2022-08-11T11:17:28.333Z,2216.00
2022-08-11T11:18:28.495Z,2216.00
2022-08-11T11:19:28.605Z,2204.00
2022-08-11T11:20:36.587Z,2240.00
2022-08-11T11:21:30.806Z,2224.00
2022-08-11T11:22:29.192Z,2240.00
2022-08-11T11:23:29.363Z,2240.00
2022-08-11T11:24:30.302Z,2276.00
2022-08-11T11:25:30.331Z,2204.00
2022-08-11T11:26:29.796Z,2204.00
2022-08-11T11:27:30.805Z,2208.00
2022-08-11T11:28:30.169Z,2192.00
2022-08-11T11:29:30.323Z,2184.00
2022-08-11T11:30:31.310Z,2208.00
2022-08-11T11:31:30.666Z,2176.00
2022-08-11T11:32:30.819Z,2168.00
2022-08-11T11:33:30.955Z,2180.00
2022-08-11T11:34:31.823Z,2184.00
2022-08-11T11:35:31.806Z,2188.00
2022-08-11T11:36:32.310Z,2216.00
2022-08-11T11:37:31.815Z,2312.00
2022-08-11T11:38:31.755Z,2224.00
2022-08-11T11:39:32.345Z,2256.00
2022-08-11T11:40:32.854Z,2248.00
2022-08-11T11:41:32.225Z,2264.00
2022-08-11T11:42:32.480Z,2284.00
2022-08-11T11:43:32.584Z,2276.00
2022-08-11T11:44:33.376Z,2276.00
2022-08-11T11:45:32.904Z,2288.00
2022-08-11T11:46:33.002Z,2292.00
2022-08-11T11:47:34.329Z,2300.00
2022-08-11T11:48:34.314Z,2308.00
2022-08-11T11:49:33.518Z,2396.00
2022-08-11T11:50:34.316Z,2332.00
2022-08-11T11:51:33.807Z,2336.00
2022-08-11T11:52:34.067Z,2348.00
2022-08-11T11:53:34.116Z,2356.00
2022-08-11T11:54:34.234Z,2384.00
2022-08-11T11:55:34.495Z,2392.00
2022-08-11T11:56:35.326Z,2388.00
2022-08-11T11:57:35.317Z,2404.00
2022-08-11T11:58:34.920Z,2444.00
2022-08-11T11:59:35.337Z,2448.00
2022-08-11T12:00:35.370Z,2448.00
2022-08-11T12:01:35.319Z,2504.00
2022-08-11T12:02:35.460Z,2516.00
2022-08-11T12:03:36.671Z,2576.00
2022-08-11T12:04:35.801Z,2528.00
2022-08-11T12:05:35.954Z,2528.00
2022-08-11T12:06:37.608Z,2548.00
2022-08-11T12:07:36.336Z,2552.00
2022-08-11T12:08:36.473Z,2608.00
2022-08-11T12:09:36.629Z,2632.00
2022-08-11T12:10:37.349Z,2648.00
2022-08-11T12:11:36.961Z,2660.00
2022-08-11T12:12:37.111Z,2676.00
2022-08-11T12:13:37.823Z,2660.00
2022-08-11T12:14:37.485Z,2672.00
2022-08-11T12:16:05.369Z,2688.00
2022-08-11T12:16:38.770Z,2700.00
2022-08-11T12:17:38.183Z,2704.00
2022-08-11T12:18:38.827Z,2712.00
2022-08-11T12:19:38.337Z,2696.00
2022-08-11T12:20:39.350Z,2728.00
2022-08-11T12:21:39.325Z,2708.00
2022-08-11T12:22:39.330Z,2728.00
2022-08-11T12:23:38.849Z,2732.00
2022-08-11T12:24:39.340Z,2724.00
2022-08-11T12:25:39.184Z,2744.00
2022-08-11T12:26:39.360Z,2776.00
2022-08-11T12:27:40.505Z,2840.00
2022-08-11T12:28:39.688Z,2804.00
2022-08-11T12:29:41.387Z,2792.00
2022-08-11T12:30:40.104Z,2776.00
2022-08-11T12:31:40.831Z,2768.00